Time;durP1;ratioP1;P1;durP2;ratioP2;P2;SDS_P1;SDS_P2;PMS_P1;PMS_P2;Temp;Humidity;BMP_temperature;BMP_pressure;BME280_temperature;BME280_humidity;BME280_pressure;Samples;Min_cycle;Max_cycle;Signal;HPM_P1;HPM_P2
2020/12/30 00:01:44;;;;;;;1.60;1.40;;;3.20;98.20;;;;;;5028484;28;20463;-80
2020/12/30 00:04:11;;;;;;;1.70;1.60;;;3.20;98.20;;;;;;5034645;28;20494;-79
2020/12/30 00:06:38;;;;;;;1.70;1.50;;;3.20;98.20;;;;;;5034826;28;20495;-79
2020/12/30 00:09:04;;;;;;;1.67;1.43;;;3.20;98.20;;;;;;5029981;28;20480;-79
2020/12/30 00:11:31;;;;;;;1.63;1.30;;;3.20;98.20;;;;;;5031061;28;20966;-79
2020/12/30 00:13:58;;;;;;;1.67;1.40;;;3.20;98.20;;;;;;5034302;28;20456;-79
2020/12/30 00:16:25;;;;;;;1.67;1.50;;;3.20;98.20;;;;;;5035334;28;20511;-80
2020/12/30 00:19:00;;;;;;;1.60;1.40;;;3.20;98.20;;;;;;5032982;28;20491;-79
2020/12/30 00:21:27;;;;;;;1.60;1.37;;;3.20;98.20;;;;;;5043158;28;20465;-79
2020/12/30 00:23:53;;;;;;;1.70;1.60;;;3.20;98.20;;;;;;5044309;28;20498;-79
2020/12/30 00:26:20;;;;;;;1.70;1.50;;;3.30;98.20;;;;;;5035946;28;20483;-79
2020/12/30 00:28:47;;;;;;;1.60;1.43;;;3.30;98.20;;;;;;5029338;28;20494;-79
2020/12/30 00:31:14;;;;;;;1.70;1.50;;;3.30;98.20;;;;;;5035547;28;20456;-79
2020/12/30 00:33:40;;;;;;;1.70;1.50;;;3.30;98.20;;;;;;5035416;28;20463;-80
2020/12/30 00:36:07;;;;;;;1.70;1.50;;;3.30;98.20;;;;;;5036156;28;20994;-80
2020/12/30 00:38:34;;;;;;;1.60;1.40;;;3.30;98.20;;;;;;5032590;28;21000;-80
2020/12/30 00:41:00;;;;;;;1.63;1.50;;;3.30;98.20;;;;;;5033990;28;20816;-79
2020/12/30 00:43:27;;;;;;;1.67;1.40;;;3.40;98.20;;;;;;5037563;28;20484;-80
2020/12/30 00:45:53;;;;;;;1.70;1.50;;;3.40;98.20;;;;;;5033039;28;20562;-78
2020/12/30 00:48:21;;;;;;;1.70;1.50;;;3.40;98.20;;;;;;5032256;28;20542;-77
2020/12/30 00:50:47;;;;;;;1.70;1.47;;;3.40;98.20;;;;;;5040966;28;20505;-79
2020/12/30 00:53:14;;;;;;;1.70;1.50;;;3.40;98.20;;;;;;5036745;28;21061;-80
2020/12/30 00:55:40;;;;;;;1.70;1.50;;;3.40;98.20;;;;;;5034192;28;20489;-79
2020/12/30 00:58:07;;;;;;;1.60;1.40;;;3.50;98.20;;;;;;5035035;28;20471;-80
2020/12/30 01:00:33;;;;;;;1.67;1.47;;;3.50;98.20;;;;;;5035528;28;20479;-80
2020/12/30 01:02:59;;;;;;;1.70;1.60;;;3.50;98.20;;;;;;5031355;28;21008;-80
2020/12/30 01:05:27;;;;;;;1.63;1.30;;;3.50;98.20;;;;;;5027557;28;20525;-78
2020/12/30 01:07:53;;;;;;;1.70;1.50;;;3.50;98.20;;;;;;5031698;28;20479;-80
2020/12/30 01:10:20;;;;;;;1.60;1.30;;;3.50;98.20;;;;;;5029575;28;20503;-79
2020/12/30 01:12:46;;;;;;;1.70;1.40;;;3.50;98.20;;;;;;5029223;28;20479;-79
2020/12/30 01:15:13;;;;;;;1.63;1.40;;;3.60;98.20;;;;;;5031316;28;20468;-79
2020/12/30 01:17:39;;;;;;;1.70;1.40;;;3.60;98.20;;;;;;5030560;28;20488;-79
2020/12/30 01:20:05;;;;;;;1.63;1.30;;;3.60;98.20;;;;;;5041154;28;20494;-80
2020/12/30 01:22:33;;;;;;;1.60;1.30;;;3.60;98.20;;;;;;5041723;28;20460;-79
2020/12/30 01:24:59;;;;;;;1.67;1.33;;;3.60;98.20;;;;;;5036592;28;20464;-79
2020/12/30 01:27:26;;;;;;;1.60;1.40;;;3.60;98.20;;;;;;5032562;28;20610;-79
2020/12/30 01:29:52;;;;;;;1.70;1.50;;;3.60;98.20;;;;;;5030972;28;20499;-79
2020/12/30 01:32:18;;;;;;;1.60;1.37;;;3.60;98.20;;;;;;5034756;28;21015;-80
2020/12/30 01:34:45;;;;;;;1.70;1.40;;;3.60;98.20;;;;;;5035174;28;20556;-79
2020/12/30 01:37:11;;;;;;;1.70;1.50;;;3.60;98.20;;;;;;5032604;28;20480;-78
2020/12/30 01:39:39;;;;;;;1.70;1.50;;;3.60;98.20;;;;;;5027732;28;20467;-79
2020/12/30 01:42:05;;;;;;;2.67;2.47;;;3.60;98.20;;;;;;5034083;28;20495;-80
2020/12/30 01:44:32;;;;;;;1.70;1.40;;;3.60;98.20;;;;;;5036201;28;21004;-78
2020/12/30 01:47:00;;;;;;;1.60;1.30;;;3.60;98.20;;;;;;5030418;28;20564;-78
2020/12/30 01:49:26;;;;;;;1.60;1.30;;;3.60;98.20;;;;;;5037096;28;20516;-80
2020/12/30 01:51:53;;;;;;;1.60;1.30;;;3.60;98.20;;;;;;5046692;28;20467;-80
2020/12/30 01:54:20;;;;;;;1.70;1.57;;;3.60;98.20;;;;;;5034067;28;20498;-80
2020/12/30 01:56:48;;;;;;;1.63;1.50;;;3.60;98.20;;;;;;5033536;28;20499;-80
2020/12/30 01:59:17;;;;;;;1.67;1.40;;;3.60;98.20;;;;;;5034485;28;20464;-78
2020/12/30 02:01:44;;;;;;;1.70;1.57;;;3.60;98.20;;;;;;5032640;28;20500;-78
2020/12/30 02:04:12;;;;;;;1.70;1.57;;;3.60;98.20;;;;;;5035356;28;20554;-78
2020/12/30 02:06:39;;;;;;;1.70;1.60;;;3.60;98.20;;;;;;5034514;28;20472;-79
2020/12/30 02:09:07;;;;;;;1.60;1.40;;;3.60;98.20;;;;;;5035462;28;20519;-79
2020/12/30 02:11:34;;;;;;;1.70;1.40;;;3.60;98.20;;;;;;5032900;28;20495;-78
2020/12/30 02:14:04;;;;;;;1.67;1.40;;;3.60;98.20;;;;;;5028812;28;20502;-79
2020/12/30 02:16:30;;;;;;;1.63;1.40;;;3.60;98.20;;;;;;5033005;28;20475;-79
2020/12/30 02:18:58;;;;;;;1.67;1.40;;;3.60;98.20;;;;;;5036501;28;20543;-79
2020/12/30 02:21:25;;;;;;;1.70;1.40;;;3.60;98.20;;;;;;5047470;28;20466;-80
2020/12/30 02:23:55;;;;;;;1.70;1.40;;;3.60;98.20;;;;;;5034565;28;20475;-80
2020/12/30 02:26:22;;;;;;;1.70;1.40;;;3.60;98.20;;;;;;5034195;28;20587;-80
2020/12/30 02:28:49;;;;;;;1.70;1.40;;;3.60;98.20;;;;;;5032544;28;20537;-79
2020/12/30 02:31:15;;;;;;;1.70;1.40;;;3.60;98.20;;;;;;5027631;28;20509;-79
2020/12/30 02:33:41;;;;;;;1.67;1.40;;;3.50;98.20;;;;;;5029199;28;20811;-79
2020/12/30 02:36:08;;;;;;;1.70;1.53;;;3.50;98.20;;;;;;5032566;28;20503;-80
2020/12/30 02:38:34;;;;;;;1.60;1.40;;;3.50;98.20;;;;;;5033701;28;20464;-79
2020/12/30 02:41:01;;;;;;;1.70;1.40;;;3.50;98.20;;;;;;5031133;28;20468;-79
2020/12/30 02:43:28;;;;;;;1.67;1.40;;;3.40;98.20;;;;;;5032421;28;20487;-79
2020/12/30 02:45:54;;;;;;;1.70;1.50;;;3.40;98.20;;;;;;5034487;28;20487;-80
2020/12/30 02:48:21;;;;;;;1.60;1.30;;;3.30;98.20;;;;;;5031325;28;20546;-80
2020/12/30 02:50:48;;;;;;;1.60;1.40;;;3.30;98.20;;;;;;5028038;28;20867;-79
2020/12/30 02:53:14;;;;;;;1.67;1.40;;;3.20;98.20;;;;;;5032965;28;20492;-78
2020/12/30 02:55:41;;;;;;;1.70;1.40;;;3.20;98.20;;;;;;5037350;28;20499;-79
2020/12/30 02:58:07;;;;;;;1.70;1.50;;;3.20;98.20;;;;;;5025713;28;20495;-78
2020/12/30 03:00:34;;;;;;;1.70;1.50;;;3.20;98.20;;;;;;5031300;28;20494;-79
2020/12/30 03:03:01;;;;;;;1.67;1.40;;;3.20;98.20;;;;;;5029354;28;20492;-77
2020/12/30 03:05:27;;;;;;;1.70;1.57;;;3.20;98.20;;;;;;5028550;28;20467;-79
2020/12/30 03:07:54;;;;;;;1.70;1.60;;;3.10;98.20;;;;;;5028949;28;21048;-79
2020/12/30 03:10:20;;;;;;;1.63;1.40;;;3.10;98.20;;;;;;5031481;28;20567;-78
2020/12/30 03:12:49;;;;;;;1.63;1.40;;;3.10;98.20;;;;;;5029404;28;20472;-77
2020/12/30 03:15:15;;;;;;;1.60;1.30;;;3.10;98.20;;;;;;5031195;28;20463;-78
2020/12/30 03:17:43;;;;;;;1.70;1.40;;;3.00;98.20;;;;;;5032154;28;20949;-78
2020/12/30 03:20:09;;;;;;;1.63;1.50;;;3.00;98.20;;;;;;5035621;28;20467;-78
2020/12/30 03:22:35;;;;;;;1.63;1.40;;;3.00;98.20;;;;;;5034615;28;20494;-78
2020/12/30 03:25:02;;;;;;;1.60;1.40;;;3.00;98.20;;;;;;5043743;28;20532;-78
2020/12/30 03:27:29;;;;;;;1.63;1.40;;;2.90;98.20;;;;;;5032213;28;20492;-77
2020/12/30 03:29:55;;;;;;;1.67;1.40;;;2.90;98.20;;;;;;5031432;28;20962;-78
2020/12/30 03:32:22;;;;;;;1.70;1.50;;;2.80;98.20;;;;;;5032542;28;20471;-77
2020/12/30 03:34:49;;;;;;;1.70;1.50;;;2.80;98.20;;;;;;5033599;28;20955;-78
2020/12/30 03:37:15;;;;;;;1.70;1.53;;;2.80;98.20;;;;;;5032502;28;20504;-78
2020/12/30 03:39:42;;;;;;;1.70;1.40;;;2.80;98.20;;;;;;5030872;28;20506;-77
2020/12/30 03:42:08;;;;;;;1.70;1.57;;;2.70;98.20;;;;;;5033062;28;20511;-78
2020/12/30 03:44:34;;;;;;;1.63;1.40;;;2.70;98.20;;;;;;5032487;28;20922;-79
2020/12/30 03:47:01;;;;;;;1.67;1.50;;;2.70;98.20;;;;;;5032012;28;20509;-79
2020/12/30 03:49:28;;;;;;;1.63;1.40;;;2.70;98.20;;;;;;5034826;28;20496;-79
2020/12/30 03:51:55;;;;;;;1.77;1.67;;;2.70;98.20;;;;;;5045887;28;20491;-79
2020/12/30 03:54:21;;;;;;;1.67;1.50;;;2.70;98.20;;;;;;5044176;28;20497;-80
2020/12/30 03:56:48;;;;;;;1.63;1.40;;;2.60;98.20;;;;;;5036656;28;20483;-80
2020/12/30 03:59:14;;;;;;;1.60;1.40;;;2.60;98.20;;;;;;5035939;28;20464;-79
2020/12/30 04:01:40;;;;;;;1.63;1.50;;;2.60;98.20;;;;;;5038561;28;20496;-78
2020/12/30 04:04:07;;;;;;;1.67;1.50;;;2.60;98.20;;;;;;5035737;28;20540;-79
2020/12/30 04:06:33;;;;;;;1.70;1.60;;;2.60;98.20;;;;;;5037507;28;20533;-78
2020/12/30 04:09:01;;;;;;;1.70;1.60;;;2.50;98.20;;;;;;5036972;28;20487;-80
2020/12/30 04:11:27;;;;;;;1.70;1.60;;;2.50;98.20;;;;;;5036044;28;20978;-79
2020/12/30 04:13:54;;;;;;;1.80;1.70;;;2.40;98.20;;;;;;5033595;28;20494;-80
2020/12/30 04:16:21;;;;;;;1.70;1.60;;;2.40;98.20;;;;;;5030267;28;20517;-79
2020/12/30 04:18:48;;;;;;;1.70;1.50;;;2.40;98.20;;;;;;5038927;28;21003;-80
2020/12/30 04:21:18;;;;;;;1.70;1.60;;;2.30;98.20;;;;;;5041181;28;20467;-80
2020/12/30 04:23:45;;;;;;;1.60;1.50;;;2.30;98.20;;;;;;5042776;28;20523;-78
2020/12/30 04:26:12;;;;;;;1.73;1.63;;;2.30;98.20;;;;;;5044701;28;20562;-79
2020/12/30 04:28:39;;;;;;;1.70;1.50;;;2.20;98.20;;;;;;5037205;28;20501;-80
2020/12/30 04:31:09;;;;;;;1.70;1.50;;;2.20;98.20;;;;;;5034102;28;20484;-80
2020/12/30 04:33:35;;;;;;;1.70;1.60;;;2.10;98.20;;;;;;5036250;28;20488;-78
2020/12/30 04:36:02;;;;;;;1.70;1.50;;;2.10;98.20;;;;;;5037445;28;20527;-77
2020/12/30 04:38:28;;;;;;;1.80;1.70;;;2.10;98.20;;;;;;5035475;28;20464;-79
2020/12/30 04:40:57;;;;;;;1.70;1.60;;;2.10;98.20;;;;;;5033885;28;20472;-80
2020/12/30 04:43:27;;;;;;;1.60;1.50;;;2.00;98.20;;;;;;5039243;28;20510;-78
2020/12/30 04:45:55;;;;;;;1.70;1.50;;;2.00;98.20;;;;;;5040007;28;20479;-78
2020/12/30 04:48:22;;;;;;;1.70;1.60;;;1.90;98.20;;;;;;5034610;28;20522;-79
2020/12/30 04:50:48;;;;;;;1.70;1.60;;;1.90;98.20;;;;;;5045905;28;20486;-77
2020/12/30 04:53:15;;;;;;;1.60;1.50;;;1.90;98.20;;;;;;5049784;28;20466;-76
2020/12/30 04:55:41;;;;;;;1.70;1.60;;;1.90;98.20;;;;;;5042856;28;20498;-78
2020/12/30 04:58:09;;;;;;;1.70;1.50;;;1.80;98.20;;;;;;5037394;28;20484;-79
2020/12/30 05:00:39;;;;;;;1.70;1.60;;;1.80;98.20;;;;;;5032293;28;20460;-79
2020/12/30 05:03:07;;;;;;;1.67;1.53;;;1.80;98.20;;;;;;5038206;28;21000;-78
2020/12/30 05:05:37;;;;;;;1.70;1.40;;;1.80;98.20;;;;;;5035996;28;20538;-78
2020/12/30 05:08:06;;;;;;;1.70;1.60;;;1.80;98.20;;;;;;5031619;28;20487;-77
2020/12/30 05:10:36;;;;;;;1.70;1.50;;;1.90;98.20;;;;;;5037218;28;20885;-78
2020/12/30 05:13:05;;;;;;;1.70;1.60;;;1.90;98.20;;;;;;5037787;28;20534;-80
2020/12/30 05:15:32;;;;;;;1.70;1.60;;;1.90;98.20;;;;;;5038166;28;20467;-80
2020/12/30 05:18:04;;;;;;;1.70;1.60;;;1.90;98.20;;;;;;5033529;28;20826;-79
2020/12/30 05:20:35;;;;;;;1.70;1.50;;;2.00;98.20;;;;;;5042927;28;20460;-78
2020/12/30 05:23:02;;;;;;;1.70;1.50;;;2.00;98.20;;;;;;5039040;28;20452;-79
2020/12/30 05:25:28;;;;;;;1.70;1.60;;;2.00;98.20;;;;;;5038205;28;20479;-79
2020/12/30 05:27:55;;;;;;;1.70;1.60;;;2.00;98.20;;;;;;5033610;28;20480;-79
2020/12/30 05:30:23;;;;;;;1.80;1.70;;;2.10;98.20;;;;;;5032038;28;20467;-79
2020/12/30 05:32:52;;;;;;;1.70;1.57;;;2.10;98.20;;;;;;5039620;28;20474;-79
2020/12/30 05:35:20;;;;;;;1.77;1.67;;;2.10;98.20;;;;;;5035191;28;20468;-77
2020/12/30 05:37:47;;;;;;;1.70;1.60;;;2.10;98.20;;;;;;5034412;28;20850;-79
2020/12/30 05:40:22;;;;;;;1.67;1.50;;;2.10;98.20;;;;;;5033859;28;20527;-79
2020/12/30 05:42:49;;;;;;;1.70;1.50;;;2.10;98.20;;;;;;5036232;28;20482;-78
2020/12/30 05:45:19;;;;;;;1.80;1.70;;;2.10;98.20;;;;;;5035812;28;20625;-80
2020/12/30 05:47:46;;;;;;;1.80;1.70;;;2.10;98.20;;;;;;5032377;28;21082;-79
2020/12/30 05:50:20;;;;;;;1.70;1.60;;;2.10;98.20;;;;;;5041867;28;20460;-77
2020/12/30 05:52:48;;;;;;;1.70;1.60;;;2.10;98.20;;;;;;5041259;28;20455;-78
2020/12/30 05:55:15;;;;;;;1.67;1.50;;;2.10;98.20;;;;;;5040769;28;20492;-79
2020/12/30 05:57:42;;;;;;;1.60;1.50;;;2.00;98.20;;;;;;5034518;28;20574;-79
2020/12/30 06:00:10;;;;;;;1.70;1.50;;;2.00;98.20;;;;;;5034302;28;20515;-78
2020/12/30 06:02:40;;;;;;;1.63;1.40;;;2.00;98.20;;;;;;5037991;28;20464;-76
2020/12/30 06:05:12;;;;;;;1.70;1.60;;;2.00;98.20;;;;;;5033122;28;20520;-79
2020/12/30 06:07:40;;;;;;;1.70;1.60;;;2.00;98.20;;;;;;5029505;28;21115;-78
2020/12/30 06:10:08;;;;;;;1.70;1.60;;;2.00;98.20;;;;;;5032990;28;20966;-79
2020/12/30 06:12:50;;;;;;;1.60;1.40;;;2.00;98.20;;;;;;5036288;28;20553;-78
2020/12/30 06:15:18;;;;;;;1.70;1.53;;;2.00;98.20;;;;;;5026034;28;20487;-78
2020/12/30 06:17:53;;;;;;;1.67;1.50;;;2.00;98.20;;;;;;5028877;28;20477;-79
2020/12/30 06:20:24;;;;;;;1.70;1.60;;;2.00;98.20;;;;;;5046661;28;20700;-78
2020/12/30 06:22:58;;;;;;;1.70;1.50;;;2.10;98.20;;;;;;5042916;28;20494;-80
2020/12/30 06:25:26;;;;;;;1.70;1.60;;;2.10;98.20;;;;;;5033712;28;20484;-78
2020/12/30 06:27:54;;;;;;;1.70;1.50;;;2.10;98.20;;;;;;5035671;28;20476;-79
2020/12/30 06:30:21;;;;;;;1.63;1.50;;;2.10;98.20;;;;;;5037170;28;20459;-78
2020/12/30 06:32:47;;;;;;;1.77;1.67;;;2.10;98.20;;;;;;5035936;28;20493;-77
2020/12/30 06:35:23;;;;;;;1.70;1.57;;;2.20;98.20;;;;;;5035173;28;20456;-79
2020/12/30 06:37:50;;;;;;;1.70;1.50;;;2.10;98.20;;;;;;5035560;28;20563;-78
2020/12/30 06:40:28;;;;;;;1.70;1.50;;;2.20;98.20;;;;;;5035888;28;20932;-79
2020/12/30 06:42:56;;;;;;;1.70;1.60;;;2.20;98.20;;;;;;5030027;28;20978;-78
2020/12/30 06:45:50;;;;;;;1.60;1.40;;;2.20;98.20;;;;;;5032822;28;20480;-79
2020/12/30 06:48:19;;;;;;;1.70;1.50;;;2.20;98.20;;;;;;5040967;28;20556;-78
2020/12/30 06:50:46;;;;;;;1.67;1.40;;;2.20;98.20;;;;;;5042530;28;21685;-78
2020/12/30 06:53:26;;;;;;;1.70;1.50;;;2.20;98.20;;;;;;5039985;28;20489;-78
2020/12/30 06:55:54;;;;;;;1.60;1.50;;;2.20;98.20;;;;;;5032207;28;20893;-78
2020/12/30 06:58:43;;;;;;;1.60;1.47;;;2.20;98.20;;;;;;5035558;28;20487;-77
2020/12/30 07:01:09;;;;;;;1.70;1.50;;;2.20;98.20;;;;;;5029611;28;20471;-79
2020/12/30 07:03:35;;;;;;;1.60;1.50;;;2.20;98.20;;;;;;5044209;28;20494;-79
2020/12/30 07:06:29;;;;;;;1.70;1.50;;;2.20;98.20;;;;;;5032397;28;21170;-79
2020/12/30 07:08:58;;;;;;;1.70;1.50;;;2.20;98.20;;;;;;5022943;28;20491;-79
2020/12/30 07:11:51;;;;;;;1.67;1.50;;;2.20;98.20;;;;;;5033647;28;20554;-77
2020/12/30 07:14:20;;;;;;;1.80;1.70;;;2.30;98.20;;;;;;5034400;28;20981;-79
2020/12/30 07:16:54;;;;;;;1.70;1.60;;;2.30;98.20;;;;;;5034246;28;20516;-79
2020/12/30 07:19:23;;;;;;;1.70;1.50;;;2.30;98.20;;;;;;5036339;28;20494;-79
2020/12/30 07:21:56;;;;;;;1.63;1.40;;;2.30;98.20;;;;;;5033083;28;20452;-79
2020/12/30 07:24:24;;;;;;;1.67;1.40;;;2.30;98.20;;;;;;5037718;28;20545;-79
2020/12/30 07:26:54;;;;;;;1.67;1.50;;;2.40;98.20;;;;;;5028131;28;20508;-81
2020/12/30 07:29:20;;;;;;;1.70;1.60;;;2.40;98.20;;;;;;5035991;28;21009;-80
2020/12/30 07:31:49;;;;;;;1.70;1.60;;;2.40;98.20;;;;;;5028351;28;20709;-81
2020/12/30 07:34:17;;;;;;;1.63;1.40;;;2.50;98.20;;;;;;5033056;28;20464;-80
2020/12/30 07:36:45;;;;;;;1.60;1.40;;;2.50;98.20;;;;;;5025951;28;20571;-80
2020/12/30 07:39:11;;;;;;;1.67;1.40;;;2.50;98.20;;;;;;5032037;28;20726;-78
2020/12/30 07:41:38;;;;;;;1.70;1.60;;;2.60;98.20;;;;;;5034443;28;20487;-80
2020/12/30 07:44:05;;;;;;;1.70;1.50;;;2.60;98.20;;;;;;5040828;28;20467;-79
2020/12/30 07:46:32;;;;;;;1.70;1.50;;;2.60;98.20;;;;;;5035293;28;20486;-79
2020/12/30 07:49:09;;;;;;;1.60;1.50;;;2.60;98.20;;;;;;5039273;28;20531;-80
2020/12/30 07:51:35;;;;;;;1.70;1.60;;;2.60;98.20;;;;;;5034504;28;20460;-78
2020/12/30 07:54:01;;;;;;;1.70;1.50;;;2.70;98.20;;;;;;5028995;28;20455;-79
2020/12/30 07:56:28;;;;;;;1.70;1.50;;;2.70;98.20;;;;;;5032532;28;20511;-79
2020/12/30 07:58:54;;;;;;;1.60;1.50;;;2.70;98.20;;;;;;5034838;28;20977;-78
2020/12/30 08:01:22;;;;;;;1.60;1.40;;;2.80;98.20;;;;;;5032985;28;20457;-78
2020/12/30 08:03:48;;;;;;;1.67;1.50;;;2.80;98.20;;;;;;5034448;28;20495;-79
2020/12/30 08:06:17;;;;;;;1.70;1.50;;;2.80;98.20;;;;;;5028907;28;20519;-79
2020/12/30 08:08:44;;;;;;;1.60;1.40;;;2.80;98.20;;;;;;5022500;28;20585;-79
2020/12/30 08:11:11;;;;;;;3.40;3.10;;;2.90;98.20;;;;;;5024988;28;20833;-79
2020/12/30 08:13:41;;;;;;;1.67;1.40;;;2.90;98.20;;;;;;5031937;28;20844;-78
2020/12/30 08:16:11;;;;;;;1.60;1.40;;;2.90;98.20;;;;;;5025290;28;20489;-79
2020/12/30 08:18:49;;;;;;;1.70;1.50;;;2.90;98.20;;;;;;5021462;28;20828;-79
2020/12/30 08:21:18;;;;;;;1.67;1.40;;;3.00;98.20;;;;;;5051138;28;20706;-77
2020/12/30 08:23:44;;;;;;;1.63;1.47;;;3.00;98.20;;;;;;5047860;28;20460;-77
2020/12/30 08:26:11;;;;;;;1.70;1.50;;;3.00;98.20;;;;;;5031908;28;20982;-77
2020/12/30 08:28:39;;;;;;;1.60;1.40;;;3.00;98.20;;;;;;5038485;28;20492;-78
2020/12/30 08:31:11;;;;;;;1.60;1.40;;;3.00;98.20;;;;;;5032151;28;20482;-78
2020/12/30 08:33:41;;;;;;;1.60;1.40;;;3.00;98.20;;;;;;5037657;28;20556;-77
2020/12/30 08:36:20;;;;;;;1.63;1.40;;;3.00;98.20;;;;;;5045125;28;20483;-77
2020/12/30 08:38:49;;;;;;;1.70;1.43;;;3.10;98.20;;;;;;5053083;28;20455;-77
2020/12/30 08:41:19;;;;;;;1.63;1.40;;;3.10;98.20;;;;;;5034234;28;20457;-78
2020/12/30 08:43:56;;;;;;;1.70;1.57;;;3.10;98.20;;;;;;5041448;28;20468;-77
2020/12/30 08:46:25;;;;;;;1.63;1.40;;;3.10;98.20;;;;;;5044063;28;20484;-78
2020/12/30 08:48:53;;;;;;;1.63;1.40;;;3.20;98.20;;;;;;5043042;28;20536;-77
2020/12/30 08:51:31;;;;;;;1.70;1.43;;;3.20;98.20;;;;;;5055195;28;20496;-77
2020/12/30 08:53:57;;;;;;;1.60;1.40;;;3.20;98.20;;;;;;5040365;28;20473;-77
2020/12/30 08:56:24;;;;;;;1.70;1.50;;;3.20;98.20;;;;;;5044706;28;20514;-77
2020/12/30 08:58:56;;;;;;;1.60;1.40;;;3.20;98.20;;;;;;5038515;28;20539;-77
2020/12/30 09:01:24;;;;;;;1.70;1.40;;;3.20;98.20;;;;;;5046887;28;20487;-77
2020/12/30 09:03:51;;;;;;;1.60;1.37;;;3.30;98.20;;;;;;5046099;28;20471;-77
2020/12/30 09:06:29;;;;;;;1.70;1.50;;;3.30;98.20;;;;;;5036619;28;20487;-77
2020/12/30 09:09:08;;;;;;;1.60;1.40;;;3.30;98.20;;;;;;5033858;28;20480;-77
2020/12/30 09:11:34;;;;;;;1.67;1.43;;;3.30;98.20;;;;;;5042260;28;20464;-77
2020/12/30 09:14:13;;;;;;;1.70;1.40;;;3.40;98.20;;;;;;5033289;28;20464;-79
2020/12/30 09:16:54;;;;;;;1.60;1.40;;;3.40;98.20;;;;;;5032229;28;20483;-78
2020/12/30 09:19:21;;;;;;;1.67;1.37;;;3.40;98.20;;;;;;5033986;28;20498;-78
2020/12/30 09:21:47;;;;;;;1.70;1.40;;;3.40;98.20;;;;;;5033797;28;20532;-77
2020/12/30 09:24:16;;;;;;;1.70;1.53;;;3.40;98.20;;;;;;5033000;28;20460;-78
2020/12/30 09:26:42;;;;;;;1.67;1.47;;;3.50;98.20;;;;;;5034654;28;20487;-77
2020/12/30 09:29:19;;;;;;;1.70;1.50;;;3.50;98.20;;;;;;5034197;28;20488;-78
2020/12/30 09:31:56;;;;;;;1.60;1.30;;;3.60;98.20;;;;;;5022760;28;20487;-78
2020/12/30 09:34:25;;;;;;;1.70;1.53;;;3.60;98.20;;;;;;5028949;28;20822;-78
2020/12/30 09:36:55;;;;;;;1.70;1.50;;;3.70;98.20;;;;;;5036015;28;20515;-77
2020/12/30 09:39:23;;;;;;;1.70;1.60;;;3.70;98.20;;;;;;5026298;28;20540;-77
2020/12/30 09:41:50;;;;;;;1.63;1.40;;;3.70;98.20;;;;;;5031046;28;20499;-78
2020/12/30 09:44:16;;;;;;;1.63;1.43;;;3.80;98.20;;;;;;5027855;28;20542;-78
2020/12/30 09:46:50;;;;;;;1.70;1.50;;;3.90;98.20;;;;;;5026792;28;20498;-78
2020/12/30 09:49:17;;;;;;;1.70;1.40;;;3.90;98.20;;;;;;5034408;28;20518;-77
2020/12/30 09:51:43;;;;;;;1.70;1.40;;;4.00;98.20;;;;;;5033732;28;20499;-77
2020/12/30 09:54:09;;;;;;;1.70;1.50;;;4.00;98.20;;;;;;5034471;28;20914;-77
2020/12/30 09:56:37;;;;;;;1.60;1.40;;;4.10;98.20;;;;;;5032600;28;20507;-77
2020/12/30 09:59:04;;;;;;;1.60;1.40;;;4.10;98.20;;;;;;5034313;28;21076;-77
2020/12/30 10:01:31;;;;;;;1.63;1.40;;;4.20;98.20;;;;;;5025801;28;20487;-77
2020/12/30 10:03:58;;;;;;;1.60;1.40;;;4.20;98.20;;;;;;5027843;28;20492;-77
2020/12/30 10:06:27;;;;;;;1.60;1.40;;;4.20;98.20;;;;;;5030426;28;20872;-77
2020/12/30 10:08:54;;;;;;;1.70;1.40;;;4.30;98.20;;;;;;5028398;28;20542;-77
2020/12/30 10:11:20;;;;;;;1.70;1.40;;;4.30;98.20;;;;;;5028008;28;20475;-77
2020/12/30 10:13:51;;;;;;;1.70;1.60;;;4.40;98.20;;;;;;5026054;28;20467;-77
2020/12/30 10:16:18;;;;;;;1.60;1.30;;;4.50;98.20;;;;;;5032768;28;20488;-78
2020/12/30 10:18:44;;;;;;;1.60;1.30;;;4.50;98.20;;;;;;5037923;28;20455;-77
2020/12/30 10:21:10;;;;;;;1.70;1.30;;;4.60;98.20;;;;;;5039560;28;20557;-77
2020/12/30 10:23:37;;;;;;;1.73;1.57;;;4.70;98.20;;;;;;5031362;28;20985;-78
2020/12/30 10:26:03;;;;;;;1.70;1.40;;;4.80;98.20;;;;;;5035490;28;20564;-77
2020/12/30 10:28:30;;;;;;;1.63;1.40;;;4.80;98.20;;;;;;5029392;28;20530;-77
2020/12/30 10:30:57;;;;;;;1.60;1.30;;;4.90;98.20;;;;;;5027904;28;20991;-77
2020/12/30 10:33:23;;;;;;;1.70;1.50;;;4.90;98.20;;;;;;5028581;28;20850;-77
2020/12/30 10:35:50;;;;;;;1.70;1.50;;;5.00;98.20;;;;;;5033035;28;20802;-77
2020/12/30 10:38:16;;;;;;;1.60;1.30;;;5.10;98.20;;;;;;5031261;28;20464;-77
2020/12/30 10:40:43;;;;;;;2.33;2.13;;;5.10;98.20;;;;;;5025339;28;20469;-78
2020/12/30 10:43:09;;;;;;;1.67;1.40;;;5.20;98.20;;;;;;5029595;28;21035;-77
2020/12/30 10:45:36;;;;;;;1.63;1.40;;;5.20;98.20;;;;;;5034179;28;20495;-77
2020/12/30 10:48:03;;;;;;;1.60;1.30;;;5.20;98.20;;;;;;5036612;28;20479;-77
2020/12/30 10:50:29;;;;;;;14.90;13.37;;;5.20;98.20;;;;;;5041995;28;21048;-77
2020/12/30 10:52:56;;;;;;;1.70;1.50;;;5.20;98.20;;;;;;5035929;28;20496;-77
2020/12/30 10:55:22;;;;;;;1.67;1.40;;;5.20;98.20;;;;;;5032737;28;20558;-77
2020/12/30 10:57:48;;;;;;;1.67;1.40;;;5.30;98.20;;;;;;5023974;28;20571;-77
2020/12/30 11:00:15;;;;;;;1.60;1.30;;;5.30;98.20;;;;;;5026682;28;20894;-78
2020/12/30 11:02:41;;;;;;;1.60;1.30;;;5.30;98.20;;;;;;5037848;28;20563;-77
2020/12/30 11:05:09;;;;;;;1.60;1.30;;;5.40;98.20;;;;;;5044424;28;20513;-77
2020/12/30 11:07:35;;;;;;;1.70;1.30;;;5.40;98.20;;;;;;5040938;28;20754;-77
2020/12/30 11:10:01;;;;;;;1.70;1.57;;;5.40;98.20;;;;;;5032892;28;20511;-78
2020/12/30 11:12:37;;;;;;;1.70;1.40;;;5.50;98.20;;;;;;5033392;28;20468;-78
2020/12/30 11:15:04;;;;;;;1.60;1.40;;;5.50;98.20;;;;;;5038142;28;20506;-77
2020/12/30 11:17:31;;;;;;;1.60;1.30;;;5.50;98.20;;;;;;5034442;28;20483;-77
2020/12/30 11:19:57;;;;;;;1.70;1.40;;;5.50;98.20;;;;;;5040546;28;20507;-78
2020/12/30 11:22:26;;;;;;;1.67;1.30;;;5.60;98.20;;;;;;5032487;28;20475;-78
2020/12/30 11:24:52;;;;;;;1.60;1.30;;;5.60;98.20;;;;;;5034882;28;20829;-78
2020/12/30 11:27:18;;;;;;;1.60;1.30;;;5.60;98.20;;;;;;5041208;28;20548;-78
2020/12/30 11:29:45;;;;;;;1.70;1.43;;;5.60;98.20;;;;;;5026274;28;20690;-78
2020/12/30 11:32:11;;;;;;;1.70;1.40;;;5.60;98.20;;;;;;5037623;28;20514;-77
2020/12/30 11:34:38;;;;;;;2.43;2.23;;;5.70;98.20;;;;;;5038538;28;20491;-78
2020/12/30 11:37:04;;;;;;;1.70;1.40;;;5.70;98.20;;;;;;5035882;28;20497;-77
2020/12/30 11:39:32;;;;;;;1.63;1.30;;;5.70;98.20;;;;;;5034918;28;20467;-78
2020/12/30 11:41:58;;;;;;;1.70;1.33;;;5.80;98.20;;;;;;5028084;28;20468;-77
2020/12/30 11:44:24;;;;;;;1.70;1.50;;;5.80;98.20;;;;;;5031100;28;21021;-77
2020/12/30 11:46:51;;;;;;;1.60;1.30;;;5.80;98.20;;;;;;5037716;28;20683;-77
2020/12/30 11:49:18;;;;;;;1.60;1.30;;;5.90;98.20;;;;;;5043575;28;20545;-77
2020/12/30 11:51:45;;;;;;;1.67;1.30;;;5.90;98.20;;;;;;5031724;28;20463;-77
2020/12/30 11:54:11;;;;;;;1.60;1.30;;;5.90;98.20;;;;;;5031719;28;20499;-77
2020/12/30 11:56:38;;;;;;;1.70;1.40;;;5.90;98.20;;;;;;5026179;28;21038;-77
2020/12/30 11:59:05;;;;;;;1.60;1.30;;;5.80;98.20;;;;;;5023269;28;20460;-78
2020/12/30 12:01:35;;;;;;;1.70;1.40;;;5.80;98.20;;;;;;5019860;28;20496;-77
2020/12/30 12:04:03;;;;;;;1.63;1.30;;;5.80;98.20;;;;;;5037339;28;20524;-78
2020/12/30 12:06:30;;;;;;;1.60;1.30;;;5.80;98.20;;;;;;5038199;28;20476;-77
2020/12/30 12:08:56;;;;;;;1.60;1.30;;;5.80;98.20;;;;;;5047448;28;20499;-78
2020/12/30 12:11:23;;;;;;;1.67;1.30;;;5.80;98.20;;;;;;5036447;28;21232;-77
2020/12/30 12:13:50;;;;;;;1.63;1.40;;;5.80;98.20;;;;;;5034202;28;20471;-77
2020/12/30 12:16:16;;;;;;;1.60;1.30;;;5.80;98.20;;;;;;5049310;28;20517;-77
2020/12/30 12:18:43;;;;;;;1.60;1.30;;;5.80;98.20;;;;;;5041779;28;20466;-78
2020/12/30 12:21:09;;;;;;;1.60;1.30;;;5.90;98.20;;;;;;5043352;28;20487;-77
2020/12/30 12:23:36;;;;;;;1.60;1.30;;;5.90;98.20;;;;;;5041297;28;20471;-77
2020/12/30 12:26:02;;;;;;;1.63;1.30;;;6.00;98.20;;;;;;5058584;28;20490;-78
2020/12/30 12:28:54;;;;;;;1.60;1.20;;;6.00;98.20;;;;;;5056680;28;20492;-78
2020/12/30 12:31:21;;;;;;;1.60;1.30;;;6.00;98.20;;;;;;5027926;28;20913;-78
2020/12/30 12:33:48;;;;;;;1.63;1.40;;;6.00;98.20;;;;;;5035739;28;20523;-79
2020/12/30 12:36:15;;;;;;;1.70;1.40;;;6.00;98.20;;;;;;5034461;28;20924;-77
2020/12/30 12:38:42;;;;;;;1.70;1.30;;;6.00;98.20;;;;;;5034777;28;20499;-77
2020/12/30 12:41:08;;;;;;;1.63;1.20;;;6.00;98.20;;;;;;5035683;28;20496;-78
2020/12/30 12:43:34;;;;;;;1.70;1.40;;;6.00;98.20;;;;;;5034671;28;20509;-78
2020/12/30 12:46:02;;;;;;;1.70;1.30;;;5.90;98.20;;;;;;5034973;28;20518;-78
2020/12/30 12:48:29;;;;;;;1.70;1.40;;;5.90;98.20;;;;;;5036756;28;20537;-77
2020/12/30 12:50:56;;;;;;;1.60;1.20;;;5.80;98.20;;;;;;5027327;28;20551;-77
2020/12/30 12:53:22;;;;;;;1.67;1.33;;;5.80;98.20;;;;;;5023512;28;20599;-78
2020/12/30 12:55:49;;;;;;;1.60;1.30;;;5.80;98.20;;;;;;5026193;28;20492;-77
2020/12/30 12:58:15;;;;;;;1.60;1.30;;;5.80;98.20;;;;;;5034733;28;20529;-78
2020/12/30 13:00:42;;;;;;;1.60;1.37;;;5.70;98.20;;;;;;5041840;28;20812;-78
2020/12/30 13:03:08;;;;;;;1.63;1.30;;;5.70;98.20;;;;;;5033236;28;20479;-78